Chiniot Weather



Chiniot's Current Weather

Temprature 43.962o few clouds

few clouds

Rain: 0 %

Min Temprature43.962o
Max Temprature43.962o
Humidity15
Wind Speed3.46 m/h
Sun Rise05:04:19
Sun Set19:17:07
Current Time: 26-Jun-2019 14:49:02
Lat/Lon: 31.72, 72.98




Chiniot's Geo Location



Chiniot's Weather Forecast

Time Overall Temp Min Temp Max Temp Humidity Wind Speed Rain
26-Jun-2019 (Wed)
17:00:00 few clouds 43.650 43.650 43.650 14 5.04 m/h 0 %
20:00:00 clear sky 39.850 39.847 39.850 20 3.32 m/h 0 %
23:00:00 clear sky 37.840 37.840 37.840 23 1.33 m/h 0 %
27-Jun-2019 (Thu)
02:00:00 clear sky 36.380 36.379 36.380 23 1.19 m/h 0 %
05:00:00 light rain 34.165 34.165 34.165 26 0.66 m/h 13 %
08:00:00 light rain 37.650 37.650 37.650 23 2.68 m/h 69 %
11:00:00 scattered clouds 42.574 42.574 42.574 15 3.3 m/h 0 %
14:00:00 clear sky 45.550 45.550 45.550 12 1.39 m/h 0 %
17:00:00 clear sky 45.880 45.880 45.880 9 3.61 m/h 0 %
20:00:00 few clouds 40.694 40.694 40.694 14 3.98 m/h 0 %
23:00:00 few clouds 37.935 37.935 37.935 20 4.12 m/h 0 %
28-Jun-2019 (Fri)
02:00:00 clear sky 36.328 36.328 36.328 24 2.57 m/h 0 %
05:00:00 clear sky 35.028 35.028 35.028 27 1.56 m/h 0 %
08:00:00 broken clouds 37.469 37.469 37.469 28 3.49 m/h 0 %
11:00:00 scattered clouds 43.325 43.325 43.325 19 2.8 m/h 0 %
14:00:00 clear sky 46.631 46.631 46.631 12 5.07 m/h 0 %
17:00:00 clear sky 46.250 46.250 46.250 11 6.02 m/h 0 %
20:00:00 clear sky 40.950 40.950 40.950 14 2.75 m/h 0 %
23:00:00 clear sky 38.072 38.072 38.072 20 4.3 m/h 0 %
29-Jun-2019 (Sat)
02:00:00 clear sky 36.172 36.172 36.172 25 2.41 m/h 0 %
05:00:00 clear sky 35.109 35.109 35.109 28 1.79 m/h 0 %
08:00:00 clear sky 38.577 38.577 38.577 28 5.17 m/h 0 %
11:00:00 clear sky 43.650 43.650 43.650 20 5.29 m/h 0 %
14:00:00 clear sky 46.750 46.750 46.750 13 5.08 m/h 0 %
17:00:00 clear sky 46.791 46.791 46.791 11 5.76 m/h 0 %
20:00:00 clear sky 42.450 42.450 42.450 14 3.75 m/h 0 %
23:00:00 clear sky 40.450 40.450 40.450 15 5.9 m/h 0 %
30-Jun-2019 (Sun)
02:00:00 clear sky 37.966 37.966 37.966 20 3.95 m/h 0 %
05:00:00 clear sky 35.372 35.372 35.372 25 1.73 m/h 0 %
08:00:00 clear sky 39.242 39.242 39.242 24 3.74 m/h 0 %
11:00:00 clear sky 43.918 43.918 43.918 20 5.02 m/h 0 %
14:00:00 clear sky 47.208 47.208 47.208 13 5.58 m/h 0 %
17:00:00 clear sky 46.950 46.950 46.950 12 5.81 m/h 0 %
20:00:00 clear sky 42.750 42.750 42.750 14 3.98 m/h 0 %
23:00:00 clear sky 40.450 40.450 40.450 17 4.86 m/h 0 %
01-Jul-2019 (Mon)
02:00:00 clear sky 37.950 37.950 37.950 21 3.38 m/h 0 %
05:00:00 clear sky 36.435 36.435 36.435 25 3.72 m/h 0 %
08:00:00 clear sky 39.650 39.650 39.650 30 6.67 m/h 0 %
11:00:00 clear sky 44.450 44.450 44.450 21 4.79 m/h 0 %
14:00:00 clear sky 48.150 48.150 48.150 12 4.71 m/h 0 %


Chiniot's Tourist Spots

Historical Places in Chiniot

Famous Cities (60)